VTK1064 UHHH-ZSPD
Flight info
| Callsign | VTK1064 |
|---|---|
| Flight time | N/A |
| Altitude | 36000 |
| Route | ARDEL2U ARDEL B355 TD B941 NULAR B467 KANSU/N0476F360 B467 MALSO Y437 TENAS Y579 AGSUS A586 DABIK Y579 BULGA A586 BEDOM Y579 PSN A586 CJU Z82 PANSI Y711 PONIK A593 LAMEN/K0883F360 A593 AKARA/K0885S1095 A593 DUMET DUM81A |
| Aircraft | A343/H-SDE2E3FGHIJ4J5M1RWXY/LB1D1 |
Departure
| Time | 2026-04-26 01:20 |
|---|---|
| Airport | Khabarovsk Novy Airport (UHHH) |
Arrival
| Time | N/A |
|---|---|
| Airport | Shanghai Pudong International Airport (ZSPD) |
| Time | Latitude | Longitude | Altitude | Speed | Heading |
|---|---|---|---|---|---|
| 2026-04-26 01:03 | 48.52751 | 135.17641 | 247 ft | 0 kts | 312° |
| 2026-04-26 01:13 | 48.52754 | 135.17637 | 247 ft | 3 kts | 312° |
| 2026-04-26 01:14 | 48.52753 | 135.17584 | 247 ft | 5 kts | 205° |
| 2026-04-26 01:14 | 48.52691 | 135.17543 | 247 ft | 14 kts | 204° |
| 2026-04-26 01:14 | 48.52623 | 135.17498 | 248 ft | 18 kts | 204° |
| 2026-04-26 01:14 | 48.52517 | 135.17441 | 249 ft | 17 kts | 181° |
| 2026-04-26 01:15 | 48.52424 | 135.17558 | 249 ft | 20 kts | 131° |
| 2026-04-26 01:15 | 48.52336 | 135.17709 | 250 ft | 19 kts | 131° |
| 2026-04-26 01:15 | 48.52237 | 135.17766 | 252 ft | 14 kts | 200° |
| 2026-04-26 01:15 | 48.52159 | 135.17685 | 253 ft | 13 kts | 222° |
| 2026-04-26 01:16 | 48.52098 | 135.17600 | 255 ft | 11 kts | 222° |
| 2026-04-26 01:16 | 48.52036 | 135.17515 | 254 ft | 14 kts | 222° |
| 2026-04-26 01:16 | 48.51942 | 135.17387 | 250 ft | 22 kts | 222° |
| 2026-04-26 01:16 | 48.51818 | 135.17217 | 245 ft | 25 kts | 222° |
| 2026-04-26 01:17 | 48.51695 | 135.17033 | 241 ft | 24 kts | 241° |
| 2026-04-26 01:17 | 48.51671 | 135.16989 | 240 ft | 2 kts | 214° |
| 2026-04-26 01:17 | 48.51656 | 135.16994 | 240 ft | 1 kts | 143° |
| 2026-04-26 01:17 | 48.51656 | 135.17001 | 240 ft | 1 kts | 115° |
| 2026-04-26 01:18 | 48.51657 | 135.17014 | 240 ft | 1 kts | 81° |
| 2026-04-26 01:18 | 48.51664 | 135.17020 | 240 ft | 2 kts | 41° |
| 2026-04-26 01:18 | 48.51680 | 135.17041 | 241 ft | 3 kts | 41° |
| 2026-04-26 01:18 | 48.51737 | 135.17115 | 243 ft | 31 kts | 41° |
| 2026-04-26 01:19 | 48.52034 | 135.17508 | 254 ft | 81 kts | 41° |
| 2026-04-26 01:19 | 48.52565 | 135.18234 | 245 ft | 124 kts | 42° |
| 2026-04-26 01:19 | 48.53287 | 135.19232 | 258 ft | 158 kts | 43° |
| 2026-04-26 01:19 | 48.54140 | 135.20393 | 544 ft | 169 kts | 41° |
| 2026-04-26 01:20 | 48.55027 | 135.21574 | 1033 ft | 170 kts | 42° |
| 2026-04-26 01:20 | 48.55844 | 135.22661 | 1527 ft | 174 kts | 44° |
| 2026-04-26 01:20 | 48.56953 | 135.24154 | 1823 ft | 196 kts | 44° |
| 2026-04-26 01:20 | 48.57654 | 135.25098 | 1999 ft | 212 kts | 44° |
| 2026-04-26 01:21 | 48.58815 | 135.26668 | 2374 ft | 232 kts | 43° |
| 2026-04-26 01:21 | 48.60029 | 135.28303 | 3153 ft | 236 kts | 43° |
| 2026-04-26 01:21 | 48.61259 | 135.29962 | 3974 ft | 239 kts | 43° |
| 2026-04-26 01:21 | 48.62918 | 135.32208 | 5064 ft | 244 kts | 43° |
| 2026-04-26 01:22 | 48.63763 | 135.33354 | 5558 ft | 247 kts | 42° |
| 2026-04-26 01:22 | 48.65061 | 135.35092 | 6322 ft | 251 kts | 40° |
| 2026-04-26 01:22 | 48.66564 | 135.36444 | 7027 ft | 256 kts | 18° |
| 2026-04-26 01:22 | 48.68327 | 135.36670 | 7747 ft | 259 kts | 349° |
| 2026-04-26 01:23 | 48.69963 | 135.35587 | 8463 ft | 261 kts | 321° |
| 2026-04-26 01:23 | 48.71069 | 135.33447 | 9206 ft | 262 kts | 292° |
| 2026-04-26 01:23 | 48.71376 | 135.30770 | 9983 ft | 261 kts | 265° |
| 2026-04-26 01:23 | 48.70466 | 135.27450 | 10851 ft | 263 kts | 228° |
| 2026-04-26 01:24 | 48.69519 | 135.26282 | 11296 ft | 266 kts | 209° |
| 2026-04-26 01:24 | 48.67172 | 135.25153 | 12228 ft | 268 kts | 194° |
| 2026-04-26 01:24 | 48.65956 | 135.24768 | 12695 ft | 269 kts | 194° |
| 2026-04-26 01:24 | 48.64126 | 135.24197 | 13390 ft | 270 kts | 195° |
| 2026-04-26 01:25 | 48.62290 | 135.23612 | 14052 ft | 270 kts | 196° |
| 2026-04-26 01:25 | 48.59850 | 135.22814 | 14868 ft | 270 kts | 197° |
| 2026-04-26 01:25 | 48.58017 | 135.22206 | 15475 ft | 270 kts | 198° |
| 2026-04-26 01:25 | 48.56187 | 135.21597 | 16063 ft | 271 kts | 198° |
| 2026-04-26 01:26 | 48.54336 | 135.21054 | 16640 ft | 272 kts | 195° |
| 2026-04-26 01:26 | 48.53072 | 135.20828 | 16907 ft | 279 kts | 193° |
| 2026-04-26 01:26 | 48.51100 | 135.20549 | 17157 ft | 291 kts | 192° |
| 2026-04-26 01:26 | 48.49042 | 135.20279 | 17364 ft | 304 kts | 192° |
| 2026-04-26 01:27 | 48.46159 | 135.19902 | 17684 ft | 321 kts | 192° |
| 2026-04-26 01:27 | 48.43898 | 135.19606 | 17928 ft | 333 kts | 192° |
| 2026-04-26 01:27 | 48.42346 | 135.19403 | 18091 ft | 341 kts | 192° |
| 2026-04-26 01:27 | 48.39950 | 135.19089 | 18317 ft | 352 kts | 192° |
| 2026-04-26 01:28 | 48.37472 | 135.18764 | 18520 ft | 364 kts | 192° |
| 2026-04-26 01:28 | 48.34920 | 135.18430 | 18728 ft | 374 kts | 192° |
| 2026-04-26 01:28 | 48.32314 | 135.18092 | 19117 ft | 379 kts | 192° |
| 2026-04-26 01:28 | 48.28802 | 135.17640 | 19762 ft | 382 kts | 192° |
| 2026-04-26 01:29 | 48.26142 | 135.17296 | 20268 ft | 385 kts | 193° |
| 2026-04-26 01:29 | 48.24363 | 135.17065 | 20604 ft | 386 kts | 193° |
| 2026-04-26 01:29 | 48.21691 | 135.16718 | 21088 ft | 387 kts | 193° |
| 2026-04-26 01:29 | 48.19013 | 135.16369 | 21595 ft | 388 kts | 193° |
| 2026-04-26 01:30 | 48.15422 | 135.15901 | 22240 ft | 391 kts | 194° |
| 2026-04-26 01:30 | 48.12715 | 135.15548 | 22706 ft | 392 kts | 194° |
| 2026-04-26 01:30 | 48.10899 | 135.15312 | 23011 ft | 394 kts | 194° |
| 2026-04-26 01:30 | 48.08172 | 135.14957 | 23451 ft | 395 kts | 194° |
| 2026-04-26 01:31 | 48.05433 | 135.14602 | 23859 ft | 396 kts | 194° |
| 2026-04-26 01:31 | 48.01774 | 135.14128 | 24395 ft | 397 kts | 195° |
| 2026-04-26 01:31 | 47.99945 | 135.13892 | 24643 ft | 398 kts | 195° |
| 2026-04-26 01:31 | 47.97187 | 135.13534 | 25007 ft | 399 kts | 195° |
| 2026-04-26 01:32 | 47.93501 | 135.13058 | 25484 ft | 400 kts | 195° |
| 2026-04-26 01:32 | 47.91652 | 135.12819 | 25728 ft | 401 kts | 195° |
| 2026-04-26 01:32 | 47.88870 | 135.12458 | 25940 ft | 404 kts | 195° |
| 2026-04-26 01:32 | 47.86062 | 135.12094 | 26233 ft | 406 kts | 195° |
| 2026-04-26 01:33 | 47.83247 | 135.11734 | 26597 ft | 407 kts | 195° |
| 2026-04-26 01:33 | 47.80431 | 135.11375 | 26935 ft | 408 kts | 195° |
| 2026-04-26 01:33 | 47.77602 | 135.11016 | 27259 ft | 409 kts | 195° |
| 2026-04-26 01:33 | 47.74772 | 135.10652 | 27582 ft | 410 kts | 195° |
| 2026-04-26 01:34 | 47.70988 | 135.10165 | 27989 ft | 411 kts | 195° |
| 2026-04-26 01:34 | 47.68140 | 135.09799 | 28285 ft | 412 kts | 195° |
| 2026-04-26 01:34 | 47.65282 | 135.09433 | 28577 ft | 414 kts | 195° |
| 2026-04-26 01:34 | 47.62419 | 135.09068 | 28912 ft | 414 kts | 195° |
| 2026-04-26 01:35 | 47.60515 | 135.08827 | 29193 ft | 412 kts | 195° |
| 2026-04-26 01:35 | 47.57667 | 135.08464 | 29496 ft | 412 kts | 195° |
| 2026-04-26 01:35 | 47.54808 | 135.08097 | 29728 ft | 414 kts | 195° |
| 2026-04-26 01:35 | 47.51956 | 135.07736 | 30113 ft | 412 kts | 195° |
| 2026-04-26 01:36 | 47.49117 | 135.07379 | 30469 ft | 410 kts | 195° |
| 2026-04-26 01:36 | 47.45328 | 135.06896 | 30736 ft | 411 kts | 195° |
| 2026-04-26 01:36 | 47.42480 | 135.06533 | 30944 ft | 412 kts | 195° |
| 2026-04-26 01:37 | 47.37720 | 135.05930 | 31329 ft | 413 kts | 195° |
| 2026-04-26 01:37 | 47.33901 | 135.05448 | 31628 ft | 414 kts | 195° |
| 2026-04-26 01:37 | 47.31991 | 135.05207 | 31765 ft | 415 kts | 195° |
| 2026-04-26 01:37 | 47.28162 | 135.04725 | 32000 ft | 416 kts | 195° |
| 2026-04-26 01:38 | 47.25269 | 135.04355 | 32025 ft | 421 kts | 195° |
| 2026-04-26 01:38 | 47.23324 | 135.04109 | 32165 ft | 421 kts | 194° |
| 2026-04-26 01:38 | 47.20431 | 135.03752 | 32577 ft | 417 kts | 195° |
| 2026-04-26 01:38 | 47.16586 | 135.03273 | 32915 ft | 416 kts | 195° |
| 2026-04-26 01:39 | 47.14667 | 135.03032 | 33054 ft | 417 kts | 195° |
| 2026-04-26 01:39 | 47.11783 | 135.02670 | 33273 ft | 417 kts | 195° |
| 2026-04-26 01:39 | 47.07932 | 135.02189 | 33565 ft | 417 kts | 195° |
| 2026-04-26 01:39 | 47.05046 | 135.01829 | 33796 ft | 417 kts | 195° |
| 2026-04-26 01:40 | 47.03122 | 135.01589 | 33912 ft | 418 kts | 195° |
| 2026-04-26 01:40 | 46.97306 | 135.00861 | 33927 ft | 420 kts | 195° |
| 2026-04-26 01:41 | 46.91510 | 135.00144 | 33928 ft | 418 kts | 195° |
| 2026-04-26 01:41 | 46.84753 | 134.99305 | 33934 ft | 418 kts | 195° |
| 2026-04-26 01:42 | 46.78969 | 134.98581 | 33930 ft | 418 kts | 195° |
| 2026-04-26 01:42 | 46.73192 | 134.97792 | 33929 ft | 417 kts | 196° |
| 2026-04-26 01:43 | 46.68389 | 134.97121 | 33931 ft | 417 kts | 195° |
| 2026-04-26 01:43 | 46.61685 | 134.96202 | 33938 ft | 414 kts | 195° |
| 2026-04-26 01:44 | 46.55963 | 134.95425 | 33935 ft | 414 kts | 195° |
| 2026-04-26 01:44 | 46.51189 | 134.94779 | 33929 ft | 414 kts | 195° |
| 2026-04-26 01:45 | 46.44509 | 134.93877 | 33939 ft | 414 kts | 195° |
| 2026-04-26 01:45 | 46.39740 | 134.93234 | 33943 ft | 414 kts | 194° |
| 2026-04-26 01:46 | 46.34025 | 134.92469 | 33937 ft | 414 kts | 195° |
| 2026-04-26 01:46 | 46.27336 | 134.91571 | 33941 ft | 415 kts | 195° |
| 2026-04-26 01:47 | 46.22558 | 134.90930 | 33939 ft | 415 kts | 195° |
| 2026-04-26 01:47 | 46.16819 | 134.90165 | 33937 ft | 415 kts | 195° |
| 2026-04-26 01:48 | 46.11101 | 134.89404 | 33944 ft | 412 kts | 195° |
| 2026-04-26 01:48 | 46.05401 | 134.88647 | 33914 ft | 411 kts | 195° |
| 2026-04-26 01:49 | 45.99711 | 134.87890 | 33939 ft | 411 kts | 195° |
| 2026-04-26 01:49 | 45.94026 | 134.87135 | 33939 ft | 411 kts | 195° |
| 2026-04-26 01:50 | 45.88337 | 134.86396 | 33937 ft | 412 kts | 194° |
| 2026-04-26 01:50 | 45.82626 | 134.85890 | 33941 ft | 412 kts | 193° |
| 2026-04-26 01:51 | 45.76904 | 134.85469 | 33931 ft | 412 kts | 193° |
| 2026-04-26 01:51 | 45.71165 | 134.85016 | 33928 ft | 417 kts | 193° |
| 2026-04-26 01:52 | 45.65379 | 134.84535 | 33938 ft | 418 kts | 193° |
| 2026-04-26 01:52 | 45.59582 | 134.84088 | 33931 ft | 418 kts | 193° |
| 2026-04-26 01:53 | 45.52826 | 134.83525 | 33927 ft | 418 kts | 193° |
| 2026-04-26 01:53 | 45.47037 | 134.83025 | 33878 ft | 417 kts | 192° |
| 2026-04-26 01:54 | 45.42205 | 134.82612 | 33919 ft | 419 kts | 191° |
| 2026-04-26 01:54 | 45.36392 | 134.82132 | 33907 ft | 419 kts | 192° |
| 2026-04-26 01:55 | 45.29602 | 134.81575 | 33912 ft | 420 kts | 192° |
| 2026-04-26 01:55 | 45.23777 | 134.81095 | 33924 ft | 420 kts | 192° |
| 2026-04-26 01:56 | 45.18928 | 134.80684 | 33862 ft | 420 kts | 192° |
| 2026-04-26 01:56 | 45.13117 | 134.80191 | 33900 ft | 418 kts | 190° |
| 2026-04-26 01:57 | 45.07335 | 134.79726 | 33908 ft | 417 kts | 191° |
| 2026-04-26 01:57 | 45.00592 | 134.79181 | 33911 ft | 417 kts | 191° |
| 2026-04-26 01:58 | 44.95771 | 134.78785 | 33908 ft | 417 kts | 191° |
| 2026-04-26 01:58 | 44.89991 | 134.78318 | 33866 ft | 417 kts | 190° |
| 2026-04-26 01:59 | 44.84194 | 134.77841 | 33910 ft | 419 kts | 190° |
| 2026-04-26 01:59 | 44.77419 | 134.77237 | 33896 ft | 419 kts | 191° |
| 2026-04-26 02:00 | 44.72585 | 134.76737 | 33902 ft | 419 kts | 191° |
| 2026-04-26 02:00 | 44.66785 | 134.76150 | 33905 ft | 419 kts | 191° |
| 2026-04-26 02:01 | 44.60989 | 134.75559 | 33895 ft | 419 kts | 190° |
| 2026-04-26 02:01 | 44.54186 | 134.74884 | 33898 ft | 422 kts | 190° |
| 2026-04-26 02:02 | 44.48337 | 134.74310 | 33893 ft | 422 kts | 190° |
| 2026-04-26 02:02 | 44.42492 | 134.73737 | 33891 ft | 422 kts | 190° |
| 2026-04-26 02:03 | 44.37626 | 134.73272 | 33894 ft | 422 kts | 190° |
| 2026-04-26 02:03 | 44.30798 | 134.72604 | 33888 ft | 425 kts | 190° |
| 2026-04-26 02:04 | 44.25862 | 134.72112 | 33886 ft | 428 kts | 190° |
| 2026-04-26 02:04 | 44.18940 | 134.71427 | 33877 ft | 428 kts | 190° |
| 2026-04-26 02:05 | 44.13992 | 134.70947 | 33877 ft | 428 kts | 190° |
| 2026-04-26 02:05 | 44.08060 | 134.70375 | 33876 ft | 428 kts | 190° |
| 2026-04-26 02:06 | 44.01160 | 134.69711 | 33878 ft | 426 kts | 190° |
| 2026-04-26 02:06 | 43.95260 | 134.69141 | 33870 ft | 426 kts | 190° |
| 2026-04-26 02:07 | 43.89360 | 134.68571 | 33857 ft | 426 kts | 190° |
| 2026-04-26 02:07 | 43.84439 | 134.68096 | 33855 ft | 426 kts | 190° |
| 2026-04-26 02:08 | 43.78533 | 134.67527 | 33840 ft | 427 kts | 190° |
| 2026-04-26 02:08 | 43.71578 | 134.66854 | 33859 ft | 432 kts | 190° |
| 2026-04-26 02:09 | 43.65587 | 134.66284 | 33862 ft | 432 kts | 190° |
| 2026-04-26 02:09 | 43.60597 | 134.65811 | 33851 ft | 432 kts | 190° |
| 2026-04-26 02:10 | 43.54614 | 134.65243 | 33867 ft | 432 kts | 190° |
| 2026-04-26 02:10 | 43.48637 | 134.64672 | 33865 ft | 432 kts | 190° |
| 2026-04-26 02:11 | 43.42643 | 134.64100 | 33873 ft | 433 kts | 190° |
| 2026-04-26 02:11 | 43.36647 | 134.63538 | 33841 ft | 432 kts | 190° |
| 2026-04-26 02:12 | 43.30661 | 134.62964 | 33883 ft | 432 kts | 190° |
| 2026-04-26 02:12 | 43.23670 | 134.62302 | 33883 ft | 433 kts | 190° |
| 2026-04-26 02:13 | 43.18672 | 134.61830 | 33890 ft | 433 kts | 190° |
| 2026-04-26 02:13 | 43.12665 | 134.61267 | 33876 ft | 433 kts | 190° |
| 2026-04-26 02:14 | 43.06659 | 134.60705 | 33891 ft | 434 kts | 189° |
| 2026-04-26 02:14 | 42.99647 | 134.60034 | 33893 ft | 433 kts | 191° |
| 2026-04-26 02:15 | 42.94703 | 134.59127 | 33889 ft | 431 kts | 194° |
| 2026-04-26 02:15 | 42.87813 | 134.57672 | 33892 ft | 430 kts | 194° |
| 2026-04-26 02:16 | 42.82895 | 134.56607 | 33881 ft | 430 kts | 194° |
| 2026-04-26 02:16 | 42.76984 | 134.55332 | 33889 ft | 431 kts | 194° |
| 2026-04-26 02:17 | 42.71077 | 134.54069 | 33887 ft | 431 kts | 194° |
| 2026-04-26 02:17 | 42.64181 | 134.52600 | 33892 ft | 431 kts | 194° |
| 2026-04-26 02:18 | 42.58268 | 134.51346 | 33891 ft | 431 kts | 194° |
| 2026-04-26 02:18 | 42.52350 | 134.50093 | 33884 ft | 431 kts | 194° |
| 2026-04-26 02:19 | 42.47417 | 134.49049 | 33893 ft | 431 kts | 194° |
| 2026-04-26 02:19 | 42.41500 | 134.47800 | 33875 ft | 432 kts | 193° |
| 2026-04-26 02:20 | 42.35563 | 134.46546 | 33889 ft | 434 kts | 193° |
| 2026-04-26 02:20 | 42.29609 | 134.45294 | 33889 ft | 434 kts | 193° |
| 2026-04-26 02:21 | 42.23652 | 134.44044 | 33887 ft | 434 kts | 193° |
| 2026-04-26 02:21 | 42.16703 | 134.42588 | 33889 ft | 434 kts | 193° |
| 2026-04-26 02:22 | 42.11733 | 134.41548 | 33893 ft | 436 kts | 193° |
| 2026-04-26 02:22 | 42.05740 | 134.40295 | 33894 ft | 437 kts | 193° |
| 2026-04-26 02:23 | 41.99733 | 134.39044 | 33888 ft | 438 kts | 193° |
| 2026-04-26 02:23 | 41.92731 | 134.37589 | 33900 ft | 437 kts | 193° |
| 2026-04-26 02:24 | 41.87728 | 134.36551 | 33900 ft | 437 kts | 193° |
| 2026-04-26 02:24 | 41.81714 | 134.35304 | 33898 ft | 439 kts | 193° |
| 2026-04-26 02:25 | 41.74668 | 134.33846 | 33901 ft | 441 kts | 193° |
| 2026-04-26 02:25 | 41.69627 | 134.32806 | 33906 ft | 441 kts | 193° |
| 2026-04-26 02:26 | 41.63572 | 134.31559 | 33906 ft | 441 kts | 193° |
| 2026-04-26 02:26 | 41.57519 | 134.30315 | 33897 ft | 441 kts | 193° |
| 2026-04-26 02:27 | 41.51460 | 134.29071 | 33909 ft | 442 kts | 193° |
| 2026-04-26 02:27 | 41.45390 | 134.27828 | 33914 ft | 442 kts | 193° |
| 2026-04-26 02:28 | 41.39321 | 134.26587 | 33914 ft | 442 kts | 193° |
| 2026-04-26 02:28 | 41.32238 | 134.25141 | 33919 ft | 443 kts | 193° |
| 2026-04-26 02:29 | 41.26156 | 134.23903 | 33921 ft | 443 kts | 193° |
| 2026-04-26 02:29 | 41.21085 | 134.22872 | 33921 ft | 443 kts | 193° |
| 2026-04-26 02:30 | 41.14999 | 134.21638 | 33917 ft | 443 kts | 193° |
| 2026-04-26 02:30 | 41.08906 | 134.20403 | 33926 ft | 444 kts | 193° |
| 2026-04-26 02:31 | 41.02812 | 134.19167 | 33929 ft | 443 kts | 193° |
| 2026-04-26 02:31 | 40.96976 | 134.16903 | 33931 ft | 435 kts | 208° |
| 2026-04-26 02:32 | 40.90736 | 134.12620 | 33931 ft | 434 kts | 212° |
| 2026-04-26 02:32 | 40.86362 | 134.09377 | 33933 ft | 434 kts | 212° |
| 2026-04-26 02:33 | 40.81108 | 134.05472 | 33933 ft | 434 kts | 212° |
| 2026-04-26 02:33 | 40.74965 | 134.00958 | 33935 ft | 434 kts | 212° |
| 2026-04-26 02:34 | 40.69689 | 133.97109 | 33938 ft | 434 kts | 212° |
| 2026-04-26 02:34 | 40.65304 | 133.93918 | 33941 ft | 433 kts | 212° |
| 2026-04-26 02:35 | 40.60043 | 133.90094 | 33940 ft | 433 kts | 212° |
| 2026-04-26 02:35 | 40.54770 | 133.86267 | 33938 ft | 434 kts | 212° |
| 2026-04-26 02:36 | 40.49493 | 133.82445 | 33947 ft | 434 kts | 212° |
| 2026-04-26 02:36 | 40.44215 | 133.78628 | 33933 ft | 434 kts | 212° |
| 2026-04-26 02:37 | 40.38930 | 133.74813 | 33940 ft | 434 kts | 212° |
| 2026-04-26 02:37 | 40.32765 | 133.70373 | 33946 ft | 434 kts | 212° |
| 2026-04-26 02:38 | 40.28371 | 133.67213 | 33948 ft | 433 kts | 212° |
| 2026-04-26 02:38 | 40.23094 | 133.63425 | 33944 ft | 434 kts | 212° |
| 2026-04-26 02:39 | 40.16934 | 133.59011 | 33948 ft | 434 kts | 212° |
| 2026-04-26 02:39 | 40.11645 | 133.55229 | 33948 ft | 434 kts | 212° |
| 2026-04-26 02:40 | 40.07241 | 133.52085 | 33950 ft | 434 kts | 212° |
| 2026-04-26 02:40 | 40.01952 | 133.48315 | 33952 ft | 434 kts | 212° |
| 2026-04-26 02:41 | 39.96667 | 133.44555 | 33947 ft | 433 kts | 212° |
| 2026-04-26 02:41 | 39.91388 | 133.40806 | 33962 ft | 433 kts | 212° |
| 2026-04-26 02:42 | 39.86110 | 133.37063 | 33950 ft | 433 kts | 212° |
| 2026-04-26 02:42 | 39.79953 | 133.32706 | 33952 ft | 433 kts | 212° |
| 2026-04-26 02:43 | 39.72912 | 133.27735 | 33961 ft | 433 kts | 212° |
| 2026-04-26 02:43 | 39.67635 | 133.24017 | 33957 ft | 433 kts | 211° |
| 2026-04-26 02:44 | 39.62351 | 133.20300 | 33952 ft | 433 kts | 212° |
| 2026-04-26 02:44 | 39.56195 | 133.15979 | 33969 ft | 431 kts | 211° |
| 2026-04-26 02:45 | 39.50929 | 133.12289 | 33969 ft | 431 kts | 211° |
| 2026-04-26 02:45 | 39.46537 | 133.09216 | 33964 ft | 431 kts | 211° |
| 2026-04-26 02:46 | 39.41268 | 133.05535 | 33972 ft | 431 kts | 211° |
| 2026-04-26 02:46 | 39.35123 | 133.01251 | 33975 ft | 431 kts | 211° |
| 2026-04-26 02:47 | 39.29883 | 132.97530 | 33978 ft | 430 kts | 213° |
| 2026-04-26 02:47 | 39.25605 | 132.94263 | 33972 ft | 430 kts | 214° |
| 2026-04-26 02:48 | 39.19644 | 132.89670 | 33980 ft | 428 kts | 214° |
| 2026-04-26 02:48 | 39.14529 | 132.85780 | 33976 ft | 428 kts | 213° |
| 2026-04-26 02:49 | 39.09405 | 132.81917 | 33980 ft | 427 kts | 213° |
| 2026-04-26 02:49 | 39.04280 | 132.78066 | 33988 ft | 427 kts | 213° |
| 2026-04-26 02:50 | 39.00007 | 132.74859 | 33978 ft | 427 kts | 213° |
| 2026-04-26 02:50 | 38.94029 | 132.70378 | 33987 ft | 428 kts | 213° |
| 2026-04-26 02:51 | 38.88900 | 132.66540 | 33988 ft | 427 kts | 213° |
| 2026-04-26 02:51 | 38.83783 | 132.62720 | 33981 ft | 425 kts | 213° |
| 2026-04-26 02:52 | 38.78686 | 132.58919 | 33990 ft | 424 kts | 213° |
| 2026-04-26 02:52 | 38.73589 | 132.55123 | 33992 ft | 424 kts | 213° |
| 2026-04-26 02:53 | 38.68493 | 132.51334 | 33989 ft | 424 kts | 213° |
| 2026-04-26 02:53 | 38.63438 | 132.47492 | 33993 ft | 422 kts | 217° |
| 2026-04-26 02:54 | 38.58641 | 132.43214 | 33993 ft | 421 kts | 218° |
| 2026-04-26 02:54 | 38.53897 | 132.38854 | 33993 ft | 421 kts | 219° |
| 2026-04-26 02:55 | 38.49947 | 132.35212 | 33987 ft | 420 kts | 219° |
| 2026-04-26 02:55 | 38.44457 | 132.30171 | 33994 ft | 416 kts | 219° |
| 2026-04-26 02:56 | 38.40545 | 132.26590 | 33992 ft | 416 kts | 219° |
| 2026-04-26 02:56 | 38.35847 | 132.22298 | 33993 ft | 417 kts | 219° |
| 2026-04-26 02:57 | 38.30358 | 132.17293 | 33992 ft | 416 kts | 218° |
| 2026-04-26 02:57 | 38.25658 | 132.13016 | 33983 ft | 416 kts | 218° |
| 2026-04-26 02:58 | 38.20956 | 132.08744 | 33991 ft | 416 kts | 218° |
| 2026-04-26 02:58 | 38.16256 | 132.04479 | 34008 ft | 416 kts | 218° |
| 2026-04-26 02:59 | 38.11553 | 132.00220 | 33995 ft | 416 kts | 218° |
| 2026-04-26 02:59 | 38.07636 | 131.96677 | 33992 ft | 415 kts | 218° |
| 2026-04-26 03:00 | 38.02948 | 131.92445 | 33998 ft | 413 kts | 218° |
| 2026-04-26 03:00 | 37.97500 | 131.87533 | 33992 ft | 413 kts | 218° |
| 2026-04-26 03:01 | 37.92829 | 131.83328 | 33987 ft | 413 kts | 218° |
| 2026-04-26 03:01 | 37.88152 | 131.79131 | 34000 ft | 413 kts | 218° |
| 2026-04-26 03:02 | 37.84252 | 131.75630 | 33983 ft | 413 kts | 218° |
| 2026-04-26 03:02 | 37.79583 | 131.71441 | 33995 ft | 412 kts | 218° |
| 2026-04-26 03:03 | 37.74129 | 131.66560 | 34000 ft | 412 kts | 218° |
| 2026-04-26 03:03 | 37.70238 | 131.63084 | 33995 ft | 412 kts | 218° |
| 2026-04-26 03:04 | 37.64766 | 131.58204 | 33996 ft | 414 kts | 218° |
| 2026-04-26 03:04 | 37.60171 | 131.53869 | 33992 ft | 413 kts | 221° |
| 2026-04-26 03:05 | 37.55775 | 131.49238 | 33995 ft | 413 kts | 222° |
| 2026-04-26 03:05 | 37.51383 | 131.44608 | 33996 ft | 413 kts | 221° |
| 2026-04-26 03:06 | 37.46953 | 131.40028 | 33993 ft | 413 kts | 221° |
| 2026-04-26 03:06 | 37.42506 | 131.35479 | 33994 ft | 413 kts | 221° |
| 2026-04-26 03:07 | 37.38042 | 131.30926 | 33996 ft | 414 kts | 221° |
| 2026-04-26 03:07 | 37.33576 | 131.26376 | 33994 ft | 414 kts | 221° |
| 2026-04-26 03:08 | 37.29109 | 131.21829 | 33994 ft | 415 kts | 221° |
| 2026-04-26 03:08 | 37.24629 | 131.17276 | 33995 ft | 415 kts | 221° |
| 2026-04-26 03:09 | 37.20141 | 131.12723 | 33994 ft | 416 kts | 221° |
| 2026-04-26 03:09 | 37.15669 | 131.08192 | 33998 ft | 412 kts | 221° |
| 2026-04-26 03:10 | 37.11966 | 131.04447 | 33996 ft | 411 kts | 221° |
| 2026-04-26 03:10 | 37.06789 | 130.99218 | 33996 ft | 411 kts | 221° |
| 2026-04-26 03:11 | 37.02350 | 130.94740 | 33995 ft | 411 kts | 221° |
| 2026-04-26 03:11 | 36.97904 | 130.90263 | 34003 ft | 411 kts | 220° |
| 2026-04-26 03:12 | 36.93424 | 130.85758 | 33993 ft | 416 kts | 220° |
| 2026-04-26 03:12 | 36.88921 | 130.81240 | 33994 ft | 415 kts | 220° |
| 2026-04-26 03:13 | 36.84439 | 130.76750 | 33996 ft | 413 kts | 220° |
| 2026-04-26 03:13 | 36.79967 | 130.72276 | 33990 ft | 413 kts | 220° |
| 2026-04-26 03:14 | 36.75497 | 130.67811 | 33995 ft | 411 kts | 220° |
| 2026-04-26 03:14 | 36.71118 | 130.63285 | 33995 ft | 409 kts | 222° |
| 2026-04-26 03:15 | 36.66807 | 130.58673 | 33992 ft | 409 kts | 222° |
| 2026-04-26 03:15 | 36.62498 | 130.54085 | 33992 ft | 406 kts | 221° |
| 2026-04-26 03:16 | 36.58212 | 130.49560 | 33997 ft | 404 kts | 221° |
| 2026-04-26 03:16 | 36.53918 | 130.45044 | 33998 ft | 408 kts | 221° |
| 2026-04-26 03:17 | 36.49567 | 130.40478 | 33995 ft | 410 kts | 221° |
| 2026-04-26 03:17 | 36.45223 | 130.35927 | 33995 ft | 409 kts | 221° |
| 2026-04-26 03:18 | 36.41610 | 130.32145 | 33996 ft | 409 kts | 221° |
| 2026-04-26 03:18 | 36.36556 | 130.26864 | 33994 ft | 406 kts | 221° |
| 2026-04-26 03:19 | 36.32243 | 130.22363 | 34001 ft | 408 kts | 221° |
| 2026-04-26 03:19 | 36.27869 | 130.17811 | 33993 ft | 413 kts | 221° |
| 2026-04-26 03:20 | 36.23483 | 130.13255 | 33995 ft | 410 kts | 220° |
| 2026-04-26 03:20 | 36.19150 | 130.08756 | 33995 ft | 406 kts | 220° |
| 2026-04-26 03:21 | 36.14830 | 130.04279 | 33998 ft | 406 kts | 220° |
| 2026-04-26 03:21 | 36.10497 | 129.99794 | 33995 ft | 410 kts | 220° |
| 2026-04-26 03:22 | 36.06106 | 129.95258 | 33996 ft | 413 kts | 220° |
| 2026-04-26 03:22 | 36.01702 | 129.90717 | 33991 ft | 413 kts | 220° |
| 2026-04-26 03:23 | 35.97304 | 129.86187 | 33992 ft | 411 kts | 220° |
| 2026-04-26 03:23 | 35.92959 | 129.81722 | 33995 ft | 405 kts | 220° |
| 2026-04-26 03:24 | 35.88622 | 129.77279 | 33987 ft | 410 kts | 220° |
| 2026-04-26 03:24 | 35.84198 | 129.72737 | 33985 ft | 418 kts | 220° |
| 2026-04-26 03:25 | 35.79743 | 129.68172 | 34002 ft | 417 kts | 220° |
| 2026-04-26 03:25 | 35.75291 | 129.63621 | 33997 ft | 417 kts | 220° |
| 2026-04-26 03:26 | 35.70840 | 129.59079 | 33993 ft | 416 kts | 220° |
| 2026-04-26 03:26 | 35.66398 | 129.54551 | 33999 ft | 419 kts | 220° |
| 2026-04-26 03:27 | 35.61868 | 129.49942 | 34001 ft | 426 kts | 220° |
| 2026-04-26 03:27 | 35.57322 | 129.45324 | 33979 ft | 424 kts | 219° |
| 2026-04-26 03:28 | 35.52816 | 129.40754 | 33995 ft | 417 kts | 219° |
| 2026-04-26 03:28 | 35.48357 | 129.36240 | 33993 ft | 416 kts | 219° |
| 2026-04-26 03:29 | 35.43882 | 129.31713 | 33992 ft | 422 kts | 219° |
| 2026-04-26 03:29 | 35.39318 | 129.27102 | 33992 ft | 427 kts | 219° |
| 2026-04-26 03:30 | 35.34756 | 129.22509 | 33999 ft | 425 kts | 219° |
| 2026-04-26 03:30 | 35.30201 | 129.17931 | 33995 ft | 424 kts | 219° |
| 2026-04-26 03:31 | 35.25673 | 129.13377 | 33997 ft | 419 kts | 219° |
| 2026-04-26 03:31 | 35.21160 | 129.08858 | 33999 ft | 423 kts | 219° |
| 2026-04-26 03:32 | 35.16563 | 129.04260 | 33991 ft | 430 kts | 219° |
| 2026-04-26 03:32 | 35.12067 | 128.99494 | 33999 ft | 427 kts | 225° |
| 2026-04-26 03:33 | 35.08105 | 128.94146 | 34006 ft | 425 kts | 227° |
| 2026-04-26 03:33 | 35.04246 | 128.88699 | 34017 ft | 425 kts | 229° |
| 2026-04-26 03:34 | 35.00362 | 128.83187 | 34000 ft | 434 kts | 228° |
| 2026-04-26 03:34 | 34.96411 | 128.77610 | 34006 ft | 435 kts | 228° |
| 2026-04-26 03:35 | 34.92458 | 128.72054 | 34007 ft | 435 kts | 228° |
| 2026-04-26 03:35 | 34.88501 | 128.66505 | 33997 ft | 434 kts | 227° |
| 2026-04-26 03:36 | 34.84548 | 128.60970 | 34012 ft | 437 kts | 228° |
| 2026-04-26 03:36 | 34.80550 | 128.55381 | 34006 ft | 440 kts | 228° |
| 2026-04-26 03:37 | 34.76541 | 128.49784 | 34008 ft | 440 kts | 228° |
| 2026-04-26 03:37 | 34.72532 | 128.44205 | 34004 ft | 438 kts | 228° |
| 2026-04-26 03:38 | 34.68534 | 128.38641 | 34006 ft | 438 kts | 228° |
| 2026-04-26 03:38 | 34.64532 | 128.33082 | 34011 ft | 438 kts | 228° |
| 2026-04-26 03:39 | 34.60533 | 128.27536 | 33998 ft | 436 kts | 227° |
| 2026-04-26 03:39 | 34.56577 | 128.22059 | 34055 ft | 430 kts | 227° |
| 2026-04-26 03:40 | 34.54606 | 128.19335 | 34250 ft | 430 kts | 227° |
| 2026-04-26 03:40 | 34.52632 | 128.16609 | 34271 ft | 435 kts | 228° |
| 2026-04-26 03:40 | 34.48599 | 128.11047 | 34433 ft | 440 kts | 228° |
| 2026-04-26 03:41 | 34.46588 | 128.08275 | 34769 ft | 437 kts | 228° |
| 2026-04-26 03:41 | 34.44594 | 128.05529 | 35084 ft | 434 kts | 228° |
| 2026-04-26 03:41 | 34.42613 | 128.02801 | 35355 ft | 431 kts | 228° |
| 2026-04-26 03:41 | 34.40634 | 128.00080 | 35595 ft | 430 kts | 228° |
| 2026-04-26 03:42 | 34.38664 | 127.97373 | 35828 ft | 429 kts | 228° |
| 2026-04-26 03:42 | 34.36697 | 127.94673 | 35994 ft | 430 kts | 229° |
| 2026-04-26 03:42 | 34.32717 | 127.89216 | 36008 ft | 437 kts | 228° |
| 2026-04-26 03:43 | 34.28698 | 127.83713 | 36006 ft | 436 kts | 228° |
| 2026-04-26 03:43 | 34.24693 | 127.78240 | 36009 ft | 435 kts | 228° |
| 2026-04-26 03:44 | 34.20687 | 127.72780 | 35989 ft | 435 kts | 228° |
| 2026-04-26 03:44 | 34.16678 | 127.67318 | 36003 ft | 437 kts | 229° |
| 2026-04-26 03:45 | 34.12633 | 127.61815 | 36000 ft | 440 kts | 229° |
| 2026-04-26 03:45 | 34.08578 | 127.56309 | 36003 ft | 440 kts | 229° |
| 2026-04-26 03:46 | 34.04523 | 127.50814 | 35999 ft | 439 kts | 228° |
| 2026-04-26 03:47 | 33.98440 | 127.42586 | 36000 ft | 441 kts | 229° |
| 2026-04-26 03:47 | 33.94356 | 127.37072 | 36004 ft | 442 kts | 229° |
| 2026-04-26 03:48 | 33.90267 | 127.31564 | 36004 ft | 442 kts | 229° |
| 2026-04-26 03:48 | 33.86181 | 127.26064 | 36014 ft | 441 kts | 229° |
| 2026-04-26 03:49 | 33.82099 | 127.20567 | 36001 ft | 443 kts | 229° |
| 2026-04-26 03:49 | 33.77992 | 127.15047 | 36005 ft | 445 kts | 229° |
| 2026-04-26 03:50 | 33.73874 | 127.09523 | 36007 ft | 444 kts | 229° |
| 2026-04-26 03:50 | 33.69752 | 127.04015 | 36006 ft | 444 kts | 229° |
| 2026-04-26 03:51 | 33.65629 | 126.98505 | 36001 ft | 444 kts | 229° |
| 2026-04-26 03:51 | 33.61495 | 126.92986 | 36001 ft | 447 kts | 229° |
| 2026-04-26 03:52 | 33.57339 | 126.87447 | 36001 ft | 447 kts | 229° |
| 2026-04-26 03:52 | 33.53399 | 126.82209 | 36007 ft | 447 kts | 229° |
| 2026-04-26 03:53 | 33.49932 | 126.77605 | 35988 ft | 447 kts | 229° |
| 2026-04-26 03:53 | 33.46098 | 126.72523 | 36006 ft | 447 kts | 230° |
| 2026-04-26 03:54 | 33.41920 | 126.66992 | 36003 ft | 450 kts | 230° |
| 2026-04-26 03:54 | 33.37621 | 126.61556 | 36005 ft | 451 kts | 225° |
| 2026-04-26 03:55 | 33.33056 | 126.56432 | 36004 ft | 451 kts | 224° |
| 2026-04-26 03:55 | 33.28447 | 126.51368 | 36012 ft | 451 kts | 224° |
| 2026-04-26 03:56 | 33.23826 | 126.46312 | 36003 ft | 453 kts | 225° |
| 2026-04-26 03:56 | 33.19184 | 126.41226 | 35998 ft | 455 kts | 225° |
| 2026-04-26 03:57 | 33.14533 | 126.36132 | 36002 ft | 454 kts | 225° |
| 2026-04-26 03:57 | 33.09886 | 126.31051 | 36004 ft | 454 kts | 225° |
| 2026-04-26 03:58 | 33.05237 | 126.25975 | 36005 ft | 454 kts | 225° |
| 2026-04-26 03:58 | 33.00297 | 126.21259 | 36005 ft | 461 kts | 214° |
| 2026-04-26 03:59 | 32.94437 | 126.18069 | 36003 ft | 467 kts | 204° |
| 2026-04-26 03:59 | 32.88334 | 126.15420 | 36004 ft | 468 kts | 202° |
| 2026-04-26 04:00 | 32.82206 | 126.12857 | 36005 ft | 467 kts | 202° |
| 2026-04-26 04:00 | 32.76106 | 126.10283 | 36007 ft | 466 kts | 203° |
| 2026-04-26 04:01 | 32.70025 | 126.07692 | 36005 ft | 465 kts | 203° |
| 2026-04-26 04:01 | 32.63945 | 126.05096 | 36007 ft | 465 kts | 203° |
| 2026-04-26 04:02 | 32.57871 | 126.02507 | 36010 ft | 464 kts | 203° |
| 2026-04-26 04:02 | 32.51804 | 125.99926 | 36009 ft | 464 kts | 203° |
| 2026-04-26 04:03 | 32.45732 | 125.97352 | 36004 ft | 464 kts | 202° |
| 2026-04-26 04:03 | 32.39675 | 125.94788 | 36013 ft | 463 kts | 203° |
| 2026-04-26 04:04 | 32.33632 | 125.92228 | 36012 ft | 462 kts | 203° |
| 2026-04-26 04:04 | 32.27588 | 125.89672 | 35998 ft | 462 kts | 202° |
| 2026-04-26 04:05 | 32.21554 | 125.87127 | 36012 ft | 460 kts | 202° |
| 2026-04-26 04:05 | 32.15537 | 125.84593 | 36018 ft | 460 kts | 202° |
| 2026-04-26 04:06 | 32.09542 | 125.82022 | 36016 ft | 459 kts | 206° |
| 2026-04-26 04:06 | 32.04142 | 125.78221 | 36019 ft | 450 kts | 223° |
| 2026-04-26 04:07 | 32.00102 | 125.72706 | 36021 ft | 445 kts | 241° |
| 2026-04-26 04:07 | 31.97778 | 125.65996 | 36018 ft | 445 kts | 255° |
| 2026-04-26 04:08 | 31.96186 | 125.58958 | 36021 ft | 446 kts | 257° |
| 2026-04-26 04:08 | 31.94676 | 125.51894 | 36017 ft | 446 kts | 256° |
| 2026-04-26 04:09 | 31.93135 | 125.44836 | 36028 ft | 447 kts | 257° |
| 2026-04-26 04:09 | 31.91556 | 125.37766 | 36024 ft | 448 kts | 257° |
| 2026-04-26 04:10 | 31.89961 | 125.30696 | 36026 ft | 448 kts | 257° |
| 2026-04-26 04:10 | 31.88362 | 125.23623 | 36029 ft | 448 kts | 257° |
| 2026-04-26 04:11 | 31.86759 | 125.16543 | 36034 ft | 449 kts | 257° |
| 2026-04-26 04:11 | 31.85153 | 125.09456 | 36028 ft | 449 kts | 257° |
| 2026-04-26 04:12 | 31.83541 | 125.02371 | 36032 ft | 449 kts | 257° |
| 2026-04-26 04:12 | 31.81950 | 124.95289 | 36031 ft | 449 kts | 258° |
| 2026-04-26 04:13 | 31.80423 | 124.88182 | 36031 ft | 449 kts | 258° |
| 2026-04-26 04:13 | 31.78899 | 124.81074 | 36034 ft | 449 kts | 258° |
| 2026-04-26 04:14 | 31.77360 | 124.73974 | 36034 ft | 449 kts | 258° |
| 2026-04-26 04:14 | 31.75813 | 124.66878 | 36030 ft | 449 kts | 259° |
| 2026-04-26 04:15 | 31.74261 | 124.59794 | 36032 ft | 448 kts | 259° |
| 2026-04-26 04:15 | 31.72708 | 124.52718 | 36047 ft | 448 kts | 259° |
| 2026-04-26 04:16 | 31.71149 | 124.45637 | 36038 ft | 448 kts | 259° |
| 2026-04-26 04:16 | 31.69590 | 124.38574 | 36039 ft | 448 kts | 259° |
| 2026-04-26 04:17 | 31.68028 | 124.31514 | 36042 ft | 447 kts | 259° |
| 2026-04-26 04:17 | 31.66463 | 124.24463 | 36041 ft | 448 kts | 259° |
| 2026-04-26 04:18 | 31.64893 | 124.17411 | 36039 ft | 447 kts | 259° |
| 2026-04-26 04:18 | 31.63322 | 124.10371 | 36042 ft | 447 kts | 259° |
| 2026-04-26 04:19 | 31.61748 | 124.03339 | 35708 ft | 446 kts | 259° |
| 2026-04-26 04:19 | 31.60960 | 123.99824 | 35464 ft | 447 kts | 259° |
| 2026-04-26 04:19 | 31.60178 | 123.96298 | 35221 ft | 448 kts | 260° |
| 2026-04-26 04:19 | 31.59407 | 123.92770 | 34982 ft | 448 kts | 260° |
| 2026-04-26 04:20 | 31.58638 | 123.89236 | 34738 ft | 448 kts | 261° |
| 2026-04-26 04:20 | 31.57871 | 123.85708 | 34494 ft | 448 kts | 261° |
| 2026-04-26 04:20 | 31.57098 | 123.82166 | 34266 ft | 449 kts | 261° |
| 2026-04-26 04:20 | 31.56324 | 123.78626 | 33906 ft | 449 kts | 261° |
| 2026-04-26 04:21 | 31.55546 | 123.75080 | 33201 ft | 451 kts | 261° |
| 2026-04-26 04:21 | 31.54764 | 123.71522 | 32474 ft | 453 kts | 261° |
| 2026-04-26 04:21 | 31.53977 | 123.67945 | 31735 ft | 456 kts | 261° |
| 2026-04-26 04:21 | 31.53183 | 123.64344 | 30951 ft | 460 kts | 261° |
| 2026-04-26 04:22 | 31.52379 | 123.60703 | 30141 ft | 464 kts | 261° |
| 2026-04-26 04:22 | 31.51568 | 123.57037 | 29231 ft | 467 kts | 260° |
| 2026-04-26 04:22 | 31.50753 | 123.53360 | 28429 ft | 468 kts | 260° |
| 2026-04-26 04:22 | 31.49938 | 123.49702 | 27879 ft | 463 kts | 260° |
| 2026-04-26 04:23 | 31.49185 | 123.46065 | 27316 ft | 457 kts | 262° |
| 2026-04-26 04:23 | 31.48517 | 123.42447 | 26743 ft | 454 kts | 262° |
| 2026-04-26 04:23 | 31.47857 | 123.38855 | 26141 ft | 451 kts | 262° |
| 2026-04-26 04:23 | 31.47192 | 123.35288 | 25603 ft | 447 kts | 262° |
| 2026-04-26 04:24 | 31.46527 | 123.31750 | 25017 ft | 445 kts | 262° |
| 2026-04-26 04:24 | 31.45861 | 123.28233 | 24445 ft | 442 kts | 262° |
| 2026-04-26 04:24 | 31.45195 | 123.24732 | 23873 ft | 440 kts | 262° |
| 2026-04-26 04:24 | 31.44532 | 123.21256 | 23244 ft | 438 kts | 262° |
| 2026-04-26 04:25 | 31.43869 | 123.17790 | 22639 ft | 434 kts | 261° |
| 2026-04-26 04:25 | 31.43213 | 123.14366 | 22060 ft | 431 kts | 261° |
| 2026-04-26 04:25 | 31.42560 | 123.10968 | 21483 ft | 427 kts | 261° |
| 2026-04-26 04:25 | 31.41912 | 123.07597 | 20912 ft | 424 kts | 261° |
| 2026-04-26 04:26 | 31.41266 | 123.04245 | 20338 ft | 421 kts | 261° |
| 2026-04-26 04:26 | 31.40625 | 123.00919 | 19771 ft | 418 kts | 261° |
| 2026-04-26 04:26 | 31.39987 | 122.97613 | 19197 ft | 416 kts | 261° |
| 2026-04-26 04:26 | 31.39351 | 122.94327 | 18640 ft | 414 kts | 261° |
| 2026-04-26 04:27 | 31.38718 | 122.91057 | 18052 ft | 412 kts | 260° |
| 2026-04-26 04:27 | 31.38087 | 122.87803 | 17449 ft | 409 kts | 260° |
| 2026-04-26 04:27 | 31.37461 | 122.84582 | 16903 ft | 405 kts | 260° |
| 2026-04-26 04:27 | 31.36840 | 122.81391 | 16345 ft | 402 kts | 260° |
| 2026-04-26 04:28 | 31.36225 | 122.78235 | 15899 ft | 396 kts | 259° |
| 2026-04-26 04:28 | 31.35626 | 122.75128 | 15488 ft | 389 kts | 260° |
| 2026-04-26 04:28 | 31.35053 | 122.72052 | 15002 ft | 386 kts | 260° |
| 2026-04-26 04:28 | 31.34489 | 122.69011 | 14589 ft | 381 kts | 260° |
| 2026-04-26 04:29 | 31.33928 | 122.66006 | 14184 ft | 378 kts | 259° |
| 2026-04-26 04:29 | 31.33370 | 122.63018 | 13764 ft | 376 kts | 259° |
| 2026-04-26 04:29 | 31.32810 | 122.60035 | 13347 ft | 374 kts | 259° |
| 2026-04-26 04:29 | 31.32255 | 122.57081 | 12944 ft | 372 kts | 259° |
| 2026-04-26 04:30 | 31.31701 | 122.54142 | 12556 ft | 370 kts | 259° |
| 2026-04-26 04:30 | 31.31150 | 122.51218 | 12197 ft | 367 kts | 259° |
| 2026-04-26 04:30 | 31.30608 | 122.48355 | 11997 ft | 356 kts | 259° |
| 2026-04-26 04:30 | 31.30082 | 122.45580 | 11824 ft | 345 kts | 260° |
| 2026-04-26 04:31 | 31.29571 | 122.42886 | 11632 ft | 335 kts | 260° |
| 2026-04-26 04:31 | 31.29075 | 122.40271 | 11486 ft | 325 kts | 260° |
| 2026-04-26 04:31 | 31.28593 | 122.37728 | 11338 ft | 316 kts | 260° |
| 2026-04-26 04:31 | 31.28126 | 122.35257 | 11197 ft | 307 kts | 260° |
| 2026-04-26 04:32 | 31.27686 | 122.32857 | 11069 ft | 299 kts | 261° |
| 2026-04-26 04:32 | 31.27257 | 122.30515 | 10913 ft | 292 kts | 261° |
| 2026-04-26 04:32 | 31.26836 | 122.28223 | 10704 ft | 287 kts | 261° |
| 2026-04-26 04:32 | 31.26417 | 122.25952 | 10449 ft | 285 kts | 260° |
| 2026-04-26 04:33 | 31.25765 | 122.23766 | 10145 ft | 289 kts | 243° |
| 2026-04-26 04:33 | 31.24485 | 122.21951 | 9853 ft | 292 kts | 227° |
| 2026-04-26 04:33 | 31.23003 | 122.20335 | 9546 ft | 291 kts | 226° |
| 2026-04-26 04:33 | 31.21510 | 122.18745 | 9243 ft | 290 kts | 226° |
| 2026-04-26 04:34 | 31.20069 | 122.17203 | 8994 ft | 286 kts | 226° |
| 2026-04-26 04:34 | 31.18629 | 122.15655 | 8867 ft | 279 kts | 226° |
| 2026-04-26 04:34 | 31.17228 | 122.14146 | 8756 ft | 271 kts | 226° |
| 2026-04-26 04:34 | 31.15866 | 122.12674 | 8619 ft | 264 kts | 227° |
| 2026-04-26 04:35 | 31.14530 | 122.11227 | 8409 ft | 261 kts | 227° |
| 2026-04-26 04:35 | 31.13207 | 122.09795 | 8177 ft | 259 kts | 227° |
| 2026-04-26 04:35 | 31.11896 | 122.08375 | 7945 ft | 257 kts | 227° |
| 2026-04-26 04:35 | 31.10606 | 122.06953 | 7692 ft | 255 kts | 229° |
| 2026-04-26 04:36 | 31.09367 | 122.05495 | 7451 ft | 252 kts | 229° |
| 2026-04-26 04:36 | 31.08144 | 122.04043 | 7136 ft | 250 kts | 229° |
| 2026-04-26 04:36 | 31.06930 | 122.02611 | 6677 ft | 248 kts | 229° |
| 2026-04-26 04:36 | 31.05723 | 122.01194 | 6197 ft | 246 kts | 229° |
| 2026-04-26 04:37 | 31.04525 | 121.99791 | 5715 ft | 244 kts | 229° |
| 2026-04-26 04:37 | 31.03337 | 121.98403 | 5265 ft | 241 kts | 229° |
| 2026-04-26 04:37 | 31.02164 | 121.97034 | 4830 ft | 237 kts | 229° |
| 2026-04-26 04:37 | 31.01004 | 121.95681 | 4315 ft | 236 kts | 229° |
| 2026-04-26 04:38 | 30.99848 | 121.94332 | 3779 ft | 236 kts | 228° |
| 2026-04-26 04:38 | 30.98690 | 121.92981 | 3255 ft | 236 kts | 227° |
| 2026-04-26 04:38 | 30.97539 | 121.91641 | 2759 ft | 234 kts | 227° |
| 2026-04-26 04:38 | 30.96387 | 121.90298 | 2274 ft | 236 kts | 225° |
| 2026-04-26 04:39 | 30.95313 | 121.88886 | 2026 ft | 233 kts | 241° |
| 2026-04-26 04:39 | 30.95033 | 121.87113 | 1990 ft | 217 kts | 283° |
| 2026-04-26 04:39 | 30.95235 | 121.86440 | 1985 ft | 205 kts | 302° |
| 2026-04-26 04:39 | 30.95808 | 121.85716 | 1983 ft | 190 kts | 330° |
| 2026-04-26 04:40 | 30.97013 | 121.85493 | 2141 ft | 176 kts | 8° |
| 2026-04-26 04:40 | 30.98252 | 121.85586 | 2487 ft | 183 kts | 1° |
| 2026-04-26 04:40 | 30.99528 | 121.85650 | 2504 ft | 181 kts | 2° |
| 2026-04-26 04:40 | 31.00752 | 121.85709 | 2264 ft | 173 kts | 2° |
| 2026-04-26 04:41 | 31.01919 | 121.85752 | 2051 ft | 163 kts | 1° |
| 2026-04-26 04:41 | 31.03010 | 121.85782 | 1979 ft | 158 kts | 1° |
| 2026-04-26 04:41 | 31.04113 | 121.85777 | 1757 ft | 156 kts | 358° |
| 2026-04-26 04:41 | 31.05138 | 121.85588 | 1557 ft | 144 kts | 344° |
| 2026-04-26 04:42 | 31.06072 | 121.85259 | 1371 ft | 138 kts | 344° |
| 2026-04-26 04:42 | 31.06994 | 121.84948 | 1187 ft | 139 kts | 345° |
| 2026-04-26 04:42 | 31.07926 | 121.84636 | 998 ft | 140 kts | 345° |
| 2026-04-26 04:42 | 31.08858 | 121.84300 | 815 ft | 142 kts | 345° |
| 2026-04-26 04:43 | 31.09791 | 121.83966 | 643 ft | 140 kts | 345° |